Orbital elements of EUTELSAT 48D
| Launched | 19 December 2008 |
| Flight ended | – |
| Launch site | Europe's Spaceport, Kourou, French Guiana |
| Owner | European Telecommunications Satellite Organization (EUTELSAT) |
| NORAD ID | 33460 |
| Alternative names |
AFGHANSAT 1 EUTELSAT 28B EUTELSAT W2M |
| Date fetched |
Epoch osculation |
Inc. [°] |
Ecc. | RA asc node [hr] |
Arg Peri. [°] |
Mean anom [°] |
Mean motion [rev/day] |
Abs. mag |
| Date fetched |
Epoch osculation |
Inc. [°] |
Ecc. | RA asc node [hr] |
Arg Peri. [°] |
Mean anom [°] |
Mean motion [rev/day] |
Abs. mag |
| 2026 May 01 17:56 | 2026 Apr 30 09:39:48 | 5.2094 | 0.00031 | 4.9970 | 307.5167 | 125.8345 | 0.98765 | – |
| 2026 Apr 30 17:56 | 2026 Apr 30 09:39:48 | 5.2094 | 0.00031 | 4.9970 | 307.5167 | 125.8345 | 0.98765 | – |
| 2026 Apr 29 17:57 | 2026 Apr 24 04:14:02 | 5.1934 | 0.00030 | 5.0017 | 298.0480 | 125.8345 | 0.98765 | – |
| 2026 Apr 28 17:56 | 2026 Apr 24 04:14:02 | 5.1934 | 0.00030 | 5.0017 | 298.0480 | 125.8345 | 0.98765 | – |
| 2026 Apr 27 17:58 | 2026 Apr 24 04:14:02 | 5.1934 | 0.00030 | 5.0017 | 298.0480 | 125.8345 | 0.98765 | – |
| 2026 Apr 26 17:58 | 2026 Apr 24 04:14:02 | 5.1934 | 0.00030 | 5.0017 | 298.0480 | 125.8345 | 0.98765 | – |
| 2026 Apr 25 17:58 | 2026 Apr 24 04:14:02 | 5.1934 | 0.00030 | 5.0017 | 298.0480 | 125.8345 | 0.98765 | – |
| 2026 Apr 24 17:59 | 2026 Apr 24 04:14:02 | 5.1934 | 0.00030 | 5.0017 | 298.0480 | 125.8345 | 0.98765 | – |
| 2026 Apr 23 17:57 | 2026 Apr 18 02:56:10 | 5.1759 | 0.00030 | 5.0065 | 293.9662 | 125.8345 | 0.98765 | – |
| 2026 Apr 22 17:57 | 2026 Apr 18 02:56:10 | 5.1759 | 0.00030 | 5.0065 | 293.9662 | 125.8345 | 0.98765 | – |
| 2026 Apr 21 17:57 | 2026 Apr 18 02:56:10 | 5.1759 | 0.00030 | 5.0065 | 293.9662 | 125.8345 | 0.98765 | – |
| 2026 Apr 20 17:57 | 2026 Apr 18 02:56:10 | 5.1759 | 0.00030 | 5.0065 | 293.9662 | 125.8345 | 0.98765 | – |
| 2026 Apr 19 17:58 | 2026 Apr 18 02:56:10 | 5.1759 | 0.00030 | 5.0065 | 293.9662 | 125.8345 | 0.98765 | – |
| 2026 Apr 18 17:56 | 2026 Apr 12 23:51:32 | 5.1616 | 0.00032 | 5.0107 | 295.8091 | 125.8345 | 0.98765 | – |
| 2026 Apr 16 17:57 | 2026 Apr 12 23:51:32 | 5.1616 | 0.00032 | 5.0107 | 295.8091 | 125.8345 | 0.98765 | – |
| 2026 Apr 14 17:57 | 2026 Apr 12 23:51:32 | 5.1616 | 0.00032 | 5.0107 | 295.8091 | 125.8345 | 0.98765 | – |
| 2026 Apr 13 17:57 | 2026 Apr 12 23:51:32 | 5.1616 | 0.00032 | 5.0107 | 295.8091 | 125.8345 | 0.98765 | – |
| 2026 Apr 12 17:57 | 2026 Apr 08 12:09:50 | 5.1505 | 0.00033 | 5.0144 | 295.3263 | 125.8345 | 0.98765 | – |
| 2026 Apr 11 17:57 | 2026 Apr 08 12:09:50 | 5.1505 | 0.00033 | 5.0144 | 295.3263 | 125.8345 | 0.98765 | – |
| 2026 Apr 10 17:58 | 2026 Apr 08 12:09:50 | 5.1505 | 0.00033 | 5.0144 | 295.3263 | 125.8345 | 0.98765 | – |
| 2026 Apr 09 18:01 | 2026 Apr 08 12:09:50 | 5.1505 | 0.00033 | 5.0144 | 295.3263 | 125.8345 | 0.98765 | – |
| 2026 Apr 08 17:57 | 2026 Apr 08 12:09:50 | 5.1505 | 0.00033 | 5.0144 | 295.3263 | 125.8345 | 0.98765 | – |
| 2026 Apr 07 17:57 | 2026 Apr 02 05:41:01 | 5.1355 | 0.00034 | 5.0196 | 287.9428 | 125.8345 | 0.98765 | – |
| 2026 Apr 06 17:57 | 2026 Apr 02 05:41:01 | 5.1355 | 0.00034 | 5.0196 | 287.9428 | 125.8345 | 0.98765 | – |
| 2026 Apr 05 17:56 | 2026 Apr 02 05:41:01 | 5.1355 | 0.00034 | 5.0196 | 287.9428 | 125.8345 | 0.98765 | – |
| 2026 Apr 04 17:57 | 2026 Apr 02 05:41:01 | 5.1355 | 0.00034 | 5.0196 | 287.9428 | 125.8345 | 0.98765 | – |